sensor_id;sensor_type;location;lat;lon;timestamp;P1;durP1;ratioP1;P2;durP2;ratioP2
65641;SDS011;52340;-6.720;108.544;2022-07-06T00:00:14;41.60;;;29.90;;
65641;SDS011;52340;-6.720;108.544;2022-07-06T00:01:16;43.33;;;31.02;;
65641;SDS011;52340;-6.720;108.544;2022-07-06T00:02:18;40.67;;;31.00;;
65641;SDS011;52340;-6.720;108.544;2022-07-06T00:03:20;42.30;;;30.87;;
65641;SDS011;52340;-6.720;108.544;2022-07-06T00:04:22;41.10;;;29.30;;
65641;SDS011;52340;-6.720;108.544;2022-07-06T00:05:23;39.25;;;29.25;;
65641;SDS011;52340;-6.720;108.544;2022-07-06T00:06:25;41.85;;;29.95;;
65641;SDS011;52340;-6.720;108.544;2022-07-06T00:07:27;39.63;;;28.80;;
65641;SDS011;52340;-6.720;108.544;2022-07-06T00:08:29;39.15;;;29.60;;
65641;SDS011;52340;-6.720;108.544;2022-07-06T00:11:41;35.90;;;28.30;;
65641;SDS011;52340;-6.720;108.544;2022-07-06T00:12:43;37.93;;;28.50;;
65641;SDS011;52340;-6.720;108.544;2022-07-06T00:13:46;41.80;;;28.40;;
65641;SDS011;52340;-6.720;108.544;2022-07-06T00:14:48;36.15;;;28.15;;
65641;SDS011;52340;-6.720;108.544;2022-07-06T00:15:50;36.80;;;27.90;;
65641;SDS011;52340;-6.720;108.544;2022-07-06T00:16:52;41.70;;;28.35;;
65641;SDS011;52340;-6.720;108.544;2022-07-06T00:17:53;40.30;;;28.00;;
65641;SDS011;52340;-6.720;108.544;2022-07-06T00:18:55;39.38;;;27.80;;
65641;SDS011;52340;-6.720;108.544;2022-07-06T00:21:03;38.90;;;29.30;;
65641;SDS011;52340;-6.720;108.544;2022-07-06T00:22:05;39.65;;;28.35;;
65641;SDS011;52340;-6.720;108.544;2022-07-06T00:24:07;40.15;;;30.20;;
65641;SDS011;52340;-6.720;108.544;2022-07-06T00:25:09;37.90;;;30.30;;
65641;SDS011;52340;-6.720;108.544;2022-07-06T00:26:11;42.00;;;30.30;;
65641;SDS011;52340;-6.720;108.544;2022-07-06T00:27:13;43.73;;;30.17;;
65641;SDS011;52340;-6.720;108.544;2022-07-06T00:28:17;42.00;;;29.87;;
65641;SDS011;52340;-6.720;108.544;2022-07-06T00:29:21;39.90;;;30.23;;
65641;SDS011;52340;-6.720;108.544;2022-07-06T00:30:23;35.73;;;28.93;;
65641;SDS011;52340;-6.720;108.544;2022-07-06T00:31:24;41.60;;;29.40;;
65641;SDS011;52340;-6.720;108.544;2022-07-06T00:32:26;36.40;;;28.95;;
65641;SDS011;52340;-6.720;108.544;2022-07-06T00:33:30;35.13;;;26.63;;
65641;SDS011;52340;-6.720;108.544;2022-07-06T00:34:32;36.90;;;27.30;;
65641;SDS011;52340;-6.720;108.544;2022-07-06T00:35:34;34.25;;;26.85;;
65641;SDS011;52340;-6.720;108.544;2022-07-06T00:36:36;37.43;;;27.60;;
65641;SDS011;52340;-6.720;108.544;2022-07-06T00:37:38;36.45;;;27.25;;
65641;SDS011;52340;-6.720;108.544;2022-07-06T00:38:40;35.80;;;26.20;;
65641;SDS011;52340;-6.720;108.544;2022-07-06T00:39:42;34.83;;;27.25;;
65641;SDS011;52340;-6.720;108.544;2022-07-06T00:40:44;35.00;;;25.90;;
65641;SDS011;52340;-6.720;108.544;2022-07-06T00:41:45;35.70;;;25.25;;
65641;SDS011;52340;-6.720;108.544;2022-07-06T00:42:48;32.10;;;25.43;;
65641;SDS011;52340;-6.720;108.544;2022-07-06T00:43:50;33.30;;;25.98;;
65641;SDS011;52340;-6.720;108.544;2022-07-06T00:45:59;35.45;;;25.00;;
65641;SDS011;52340;-6.720;108.544;2022-07-06T00:47:01;34.43;;;25.00;;
65641;SDS011;52340;-6.720;108.544;2022-07-06T00:48:03;33.80;;;24.70;;
65641;SDS011;52340;-6.720;108.544;2022-07-06T00:49:07;34.05;;;24.95;;
65641;SDS011;52340;-6.720;108.544;2022-07-06T00:50:10;34.90;;;23.90;;
65641;SDS011;52340;-6.720;108.544;2022-07-06T00:51:12;37.05;;;24.70;;
65641;SDS011;52340;-6.720;108.544;2022-07-06T00:52:14;32.75;;;24.15;;
65641;SDS011;52340;-6.720;108.544;2022-07-06T00:55:38;34.77;;;26.27;;
65641;SDS011;52340;-6.720;108.544;2022-07-06T00:56:40;31.47;;;24.73;;
65641;SDS011;52340;-6.720;108.544;2022-07-06T00:58:46;34.33;;;25.63;;
65641;SDS011;52340;-6.720;108.544;2022-07-06T00:59:48;34.00;;;24.70;;
65641;SDS011;52340;-6.720;108.544;2022-07-06T01:02:02;33.10;;;24.80;;
65641;SDS011;52340;-6.720;108.544;2022-07-06T01:03:07;29.80;;;23.40;;
65641;SDS011;52340;-6.720;108.544;2022-07-06T01:04:11;32.92;;;25.02;;
65641;SDS011;52340;-6.720;108.544;2022-07-06T01:07:36;34.83;;;24.88;;
65641;SDS011;52340;-6.720;108.544;2022-07-06T01:08:42;34.50;;;24.50;;
65641;SDS011;52340;-6.720;108.544;2022-07-06T01:09:43;36.13;;;24.70;;
65641;SDS011;52340;-6.720;108.544;2022-07-06T01:10:45;31.70;;;24.15;;
65641;SDS011;52340;-6.720;108.544;2022-07-06T01:11:47;34.85;;;25.65;;
65641;SDS011;52340;-6.720;108.544;2022-07-06T01:12:52;31.17;;;24.83;;
65641;SDS011;52340;-6.720;108.544;2022-07-06T01:13:54;34.25;;;25.27;;
65641;SDS011;52340;-6.720;108.544;2022-07-06T01:14:57;33.67;;;25.40;;
65641;SDS011;52340;-6.720;108.544;2022-07-06T01:15:59;32.25;;;24.73;;
65641;SDS011;52340;-6.720;108.544;2022-07-06T01:17:06;33.83;;;25.00;;
65641;SDS011;52340;-6.720;108.544;2022-07-06T01:18:09;34.47;;;24.67;;
65641;SDS011;52340;-6.720;108.544;2022-07-06T01:19:11;33.65;;;26.92;;
65641;SDS011;52340;-6.720;108.544;2022-07-06T01:20:15;34.20;;;25.92;;
65641;SDS011;52340;-6.720;108.544;2022-07-06T01:21:19;35.93;;;25.47;;
65641;SDS011;52340;-6.720;108.544;2022-07-06T01:22:21;34.47;;;26.30;;
65641;SDS011;52340;-6.720;108.544;2022-07-06T01:23:23;33.97;;;25.73;;
65641;SDS011;52340;-6.720;108.544;2022-07-06T01:24:24;33.80;;;26.03;;
65641;SDS011;52340;-6.720;108.544;2022-07-06T01:25:26;35.15;;;25.90;;
65641;SDS011;52340;-6.720;108.544;2022-07-06T01:26:28;33.72;;;26.25;;
65641;SDS011;52340;-6.720;108.544;2022-07-06T01:28:30;37.30;;;26.50;;
65641;SDS011;52340;-6.720;108.544;2022-07-06T01:29:32;41.80;;;26.65;;
65641;SDS011;52340;-6.720;108.544;2022-07-06T01:30:34;37.43;;;27.03;;
65641;SDS011;52340;-6.720;108.544;2022-07-06T01:31:44;37.40;;;27.42;;
65641;SDS011;52340;-6.720;108.544;2022-07-06T01:32:47;38.80;;;27.27;;
65641;SDS011;52340;-6.720;108.544;2022-07-06T01:33:49;35.97;;;25.88;;
65641;SDS011;52340;-6.720;108.544;2022-07-06T01:34:51;40.30;;;27.67;;
65641;SDS011;52340;-6.720;108.544;2022-07-06T01:35:58;39.43;;;26.80;;
65641;SDS011;52340;-6.720;108.544;2022-07-06T01:37:02;38.60;;;27.40;;
65641;SDS011;52340;-6.720;108.544;2022-07-06T01:38:04;39.30;;;27.80;;
65641;SDS011;52340;-6.720;108.544;2022-07-06T01:39:07;37.35;;;25.95;;
65641;SDS011;52340;-6.720;108.544;2022-07-06T01:40:10;43.55;;;27.52;;
65641;SDS011;52340;-6.720;108.544;2022-07-06T01:41:12;37.55;;;27.13;;
65641;SDS011;52340;-6.720;108.544;2022-07-06T01:42:14;39.00;;;27.67;;
65641;SDS011;52340;-6.720;108.544;2022-07-06T01:43:16;42.15;;;29.08;;
65641;SDS011;52340;-6.720;108.544;2022-07-06T01:44:17;45.05;;;31.30;;
65641;SDS011;52340;-6.720;108.544;2022-07-06T01:45:19;45.30;;;31.00;;
65641;SDS011;52340;-6.720;108.544;2022-07-06T01:46:21;76.40;;;48.05;;
65641;SDS011;52340;-6.720;108.544;2022-07-06T01:47:22;99.93;;;56.15;;
65641;SDS011;52340;-6.720;108.544;2022-07-06T01:48:24;122.80;;;71.80;;
65641;SDS011;52340;-6.720;108.544;2022-07-06T01:49:26;111.13;;;64.57;;
65641;SDS011;52340;-6.720;108.544;2022-07-06T01:51:30;138.15;;;75.55;;
65641;SDS011;52340;-6.720;108.544;2022-07-06T01:52:31;123.88;;;68.55;;
65641;SDS011;52340;-6.720;108.544;2022-07-06T01:53:33;96.32;;;52.63;;
65641;SDS011;52340;-6.720;108.544;2022-07-06T01:54:35;82.20;;;49.13;;
65641;SDS011;52340;-6.720;108.544;2022-07-06T01:56:41;67.30;;;42.45;;
65641;SDS011;52340;-6.720;108.544;2022-07-06T01:57:46;78.45;;;46.38;;
65641;SDS011;52340;-6.720;108.544;2022-07-06T01:58:48;65.88;;;41.28;;
65641;SDS011;52340;-6.720;108.544;2022-07-06T02:00:52;61.93;;;35.80;;
65641;SDS011;52340;-6.720;108.544;2022-07-06T02:01:57;58.30;;;34.60;;
65641;SDS011;52340;-6.720;108.544;2022-07-06T02:02:59;49.28;;;30.30;;
65641;SDS011;52340;-6.720;108.544;2022-07-06T02:04:01;46.95;;;29.80;;
65641;SDS011;52340;-6.720;108.544;2022-07-06T02:05:03;40.85;;;27.50;;
65641;SDS011;52340;-6.720;108.544;2022-07-06T02:06:08;43.53;;;28.10;;
65641;SDS011;52340;-6.720;108.544;2022-07-06T02:07:12;44.80;;;27.23;;
65641;SDS011;52340;-6.720;108.544;2022-07-06T02:08:13;47.85;;;27.45;;
65641;SDS011;52340;-6.720;108.544;2022-07-06T02:09:15;43.17;;;27.55;;
65641;SDS011;52340;-6.720;108.544;2022-07-06T02:10:17;46.03;;;28.90;;
65641;SDS011;52340;-6.720;108.544;2022-07-06T02:11:19;42.95;;;27.80;;
65641;SDS011;52340;-6.720;108.544;2022-07-06T02:12:21;42.63;;;27.48;;
65641;SDS011;52340;-6.720;108.544;2022-07-06T02:13:23;41.88;;;26.83;;
65641;SDS011;52340;-6.720;108.544;2022-07-06T02:14:24;42.92;;;27.30;;
65641;SDS011;52340;-6.720;108.544;2022-07-06T02:15:26;39.83;;;26.27;;
65641;SDS011;52340;-6.720;108.544;2022-07-06T02:16:28;40.30;;;26.45;;
65641;SDS011;52340;-6.720;108.544;2022-07-06T02:17:29;35.13;;;25.23;;
65641;SDS011;52340;-6.720;108.544;2022-07-06T02:18:31;35.95;;;24.88;;
65641;SDS011;52340;-6.720;108.544;2022-07-06T02:19:33;36.33;;;25.27;;
65641;SDS011;52340;-6.720;108.544;2022-07-06T02:20:35;37.00;;;25.00;;
65641;SDS011;52340;-6.720;108.544;2022-07-06T02:21:37;36.10;;;24.55;;
65641;SDS011;52340;-6.720;108.544;2022-07-06T02:22:40;36.47;;;25.00;;
65641;SDS011;52340;-6.720;108.544;2022-07-06T02:23:42;34.05;;;24.55;;
65641;SDS011;52340;-6.720;108.544;2022-07-06T02:24:44;33.00;;;23.40;;
65641;SDS011;52340;-6.720;108.544;2022-07-06T02:25:46;33.13;;;23.93;;
65641;SDS011;52340;-6.720;108.544;2022-07-06T02:26:47;32.42;;;23.85;;
65641;SDS011;52340;-6.720;108.544;2022-07-06T02:27:49;29.20;;;23.00;;
65641;SDS011;52340;-6.720;108.544;2022-07-06T02:28:51;31.63;;;23.58;;
65641;SDS011;52340;-6.720;108.544;2022-07-06T02:29:55;33.80;;;24.02;;
65641;SDS011;52340;-6.720;108.544;2022-07-06T02:30:57;30.25;;;22.80;;
65641;SDS011;52340;-6.720;108.544;2022-07-06T02:32:01;33.95;;;23.45;;
65641;SDS011;52340;-6.720;108.544;2022-07-06T02:33:03;30.90;;;22.65;;
65641;SDS011;52340;-6.720;108.544;2022-07-06T02:34:08;29.63;;;23.13;;
65641;SDS011;52340;-6.720;108.544;2022-07-06T02:35:09;32.27;;;23.70;;
65641;SDS011;52340;-6.720;108.544;2022-07-06T02:36:11;33.50;;;23.17;;
65641;SDS011;52340;-6.720;108.544;2022-07-06T02:37:13;31.60;;;22.85;;
65641;SDS011;52340;-6.720;108.544;2022-07-06T02:38:17;30.63;;;22.63;;
65641;SDS011;52340;-6.720;108.544;2022-07-06T02:39:21;30.05;;;23.30;;
65641;SDS011;52340;-6.720;108.544;2022-07-06T02:40:24;27.03;;;21.50;;
65641;SDS011;52340;-6.720;108.544;2022-07-06T02:41:28;29.03;;;21.80;;
65641;SDS011;52340;-6.720;108.544;2022-07-06T02:42:30;31.15;;;22.50;;
65641;SDS011;52340;-6.720;108.544;2022-07-06T02:43:32;30.60;;;22.35;;
65641;SDS011;52340;-6.720;108.544;2022-07-06T02:44:36;27.70;;;21.60;;
65641;SDS011;52340;-6.720;108.544;2022-07-06T02:45:38;29.77;;;23.30;;
65641;SDS011;52340;-6.720;108.544;2022-07-06T02:46:40;32.00;;;22.00;;
65641;SDS011;52340;-6.720;108.544;2022-07-06T02:47:42;31.23;;;22.15;;
65641;SDS011;52340;-6.720;108.544;2022-07-06T02:48:43;29.90;;;22.20;;
65641;SDS011;52340;-6.720;108.544;2022-07-06T02:49:45;29.58;;;21.50;;
65641;SDS011;52340;-6.720;108.544;2022-07-06T02:50:47;29.30;;;21.60;;
65641;SDS011;52340;-6.720;108.544;2022-07-06T02:51:49;29.80;;;22.42;;
65641;SDS011;52340;-6.720;108.544;2022-07-06T02:52:54;32.37;;;22.70;;
65641;SDS011;52340;-6.720;108.544;2022-07-06T02:53:57;30.27;;;22.73;;
65641;SDS011;52340;-6.720;108.544;2022-07-06T02:54:59;34.35;;;23.83;;
65641;SDS011;52340;-6.720;108.544;2022-07-06T02:56:01;31.37;;;22.77;;
65641;SDS011;52340;-6.720;108.544;2022-07-06T02:57:03;31.30;;;22.55;;
65641;SDS011;52340;-6.720;108.544;2022-07-06T02:58:05;31.30;;;23.00;;
65641;SDS011;52340;-6.720;108.544;2022-07-06T02:59:06;32.57;;;23.33;;
65641;SDS011;52340;-6.720;108.544;2022-07-06T03:00:09;32.63;;;22.80;;
65641;SDS011;52340;-6.720;108.544;2022-07-06T03:01:11;30.90;;;22.70;;
65641;SDS011;52340;-6.720;108.544;2022-07-06T03:02:13;30.40;;;21.83;;
65641;SDS011;52340;-6.720;108.544;2022-07-06T03:03:14;28.65;;;21.10;;
65641;SDS011;52340;-6.720;108.544;2022-07-06T03:04:16;28.10;;;22.10;;
65641;SDS011;52340;-6.720;108.544;2022-07-06T03:05:18;27.00;;;20.90;;
65641;SDS011;52340;-6.720;108.544;2022-07-06T03:06:20;26.40;;;21.27;;
65641;SDS011;52340;-6.720;108.544;2022-07-06T03:07:23;27.57;;;21.07;;
65641;SDS011;52340;-6.720;108.544;2022-07-06T03:08:25;28.73;;;20.85;;
65641;SDS011;52340;-6.720;108.544;2022-07-06T03:09:29;27.47;;;20.87;;
65641;SDS011;52340;-6.720;108.544;2022-07-06T03:10:30;28.90;;;21.57;;
65641;SDS011;52340;-6.720;108.544;2022-07-06T03:11:32;30.37;;;20.93;;
65641;SDS011;52340;-6.720;108.544;2022-07-06T03:12:34;27.08;;;20.80;;
65641;SDS011;52340;-6.720;108.544;2022-07-06T03:13:36;26.60;;;20.17;;
65641;SDS011;52340;-6.720;108.544;2022-07-06T03:14:38;26.15;;;20.52;;
65641;SDS011;52340;-6.720;108.544;2022-07-06T03:15:40;25.77;;;20.00;;
65641;SDS011;52340;-6.720;108.544;2022-07-06T03:16:42;28.43;;;19.93;;
65641;SDS011;52340;-6.720;108.544;2022-07-06T03:17:44;27.65;;;20.65;;
65641;SDS011;52340;-6.720;108.544;2022-07-06T03:18:46;26.95;;;20.25;;
65641;SDS011;52340;-6.720;108.544;2022-07-06T03:19:48;26.40;;;18.85;;
65641;SDS011;52340;-6.720;108.544;2022-07-06T03:20:51;26.48;;;19.70;;
65641;SDS011;52340;-6.720;108.544;2022-07-06T03:22:56;28.98;;;20.67;;
65641;SDS011;52340;-6.720;108.544;2022-07-06T03:23:58;28.42;;;21.05;;
65641;SDS011;52340;-6.720;108.544;2022-07-06T03:25:03;29.35;;;20.50;;
65641;SDS011;52340;-6.720;108.544;2022-07-06T03:26:05;29.27;;;21.27;;
65641;SDS011;52340;-6.720;108.544;2022-07-06T03:27:08;29.52;;;20.80;;
65641;SDS011;52340;-6.720;108.544;2022-07-06T03:28:10;28.38;;;21.38;;
65641;SDS011;52340;-6.720;108.544;2022-07-06T03:29:12;30.05;;;22.73;;
65641;SDS011;52340;-6.720;108.544;2022-07-06T03:30:14;27.57;;;21.23;;
65641;SDS011;52340;-6.720;108.544;2022-07-06T03:31:17;27.15;;;21.58;;
65641;SDS011;52340;-6.720;108.544;2022-07-06T03:32:19;26.03;;;20.87;;
65641;SDS011;52340;-6.720;108.544;2022-07-06T03:33:24;27.05;;;21.25;;
65641;SDS011;52340;-6.720;108.544;2022-07-06T03:34:26;29.77;;;21.00;;
65641;SDS011;52340;-6.720;108.544;2022-07-06T03:35:28;28.75;;;21.40;;
65641;SDS011;52340;-6.720;108.544;2022-07-06T03:36:30;30.20;;;22.30;;
65641;SDS011;52340;-6.720;108.544;2022-07-06T03:37:33;28.00;;;21.63;;
65641;SDS011;52340;-6.720;108.544;2022-07-06T03:38:38;29.13;;;21.93;;
65641;SDS011;52340;-6.720;108.544;2022-07-06T03:39:41;33.35;;;23.30;;
65641;SDS011;52340;-6.720;108.544;2022-07-06T03:40:45;30.83;;;22.83;;
65641;SDS011;52340;-6.720;108.544;2022-07-06T03:41:47;30.53;;;22.67;;
65641;SDS011;52340;-6.720;108.544;2022-07-06T03:42:49;32.90;;;24.80;;
65641;SDS011;52340;-6.720;108.544;2022-07-06T03:43:52;33.42;;;24.90;;
65641;SDS011;52340;-6.720;108.544;2022-07-06T03:44:54;34.85;;;25.73;;
65641;SDS011;52340;-6.720;108.544;2022-07-06T03:45:58;35.83;;;25.88;;
65641;SDS011;52340;-6.720;108.544;2022-07-06T03:47:03;34.10;;;26.63;;
65641;SDS011;52340;-6.720;108.544;2022-07-06T03:48:05;36.50;;;26.00;;
65641;SDS011;52340;-6.720;108.544;2022-07-06T03:49:08;36.83;;;27.77;;
65641;SDS011;52340;-6.720;108.544;2022-07-06T03:50:10;36.50;;;26.70;;
65641;SDS011;52340;-6.720;108.544;2022-07-06T03:51:12;37.03;;;28.03;;
65641;SDS011;52340;-6.720;108.544;2022-07-06T03:52:15;37.37;;;27.63;;
65641;SDS011;52340;-6.720;108.544;2022-07-06T03:53:17;37.05;;;27.23;;
65641;SDS011;52340;-6.720;108.544;2022-07-06T03:54:19;34.73;;;26.93;;
65641;SDS011;52340;-6.720;108.544;2022-07-06T03:55:21;36.07;;;25.67;;
65641;SDS011;52340;-6.720;108.544;2022-07-06T03:56:25;39.10;;;27.70;;
65641;SDS011;52340;-6.720;108.544;2022-07-06T03:57:28;32.53;;;25.93;;
65641;SDS011;52340;-6.720;108.544;2022-07-06T03:58:30;37.58;;;27.00;;
65641;SDS011;52340;-6.720;108.544;2022-07-06T03:59:32;36.65;;;27.30;;
65641;SDS011;52340;-6.720;108.544;2022-07-06T04:00:35;33.03;;;25.05;;
65641;SDS011;52340;-6.720;108.544;2022-07-06T04:01:37;33.42;;;25.27;;
65641;SDS011;52340;-6.720;108.544;2022-07-06T04:02:43;33.40;;;25.60;;
65641;SDS011;52340;-6.720;108.544;2022-07-06T04:03:48;34.95;;;26.90;;
65641;SDS011;52340;-6.720;108.544;2022-07-06T04:04:50;33.78;;;26.05;;
65641;SDS011;52340;-6.720;108.544;2022-07-06T04:05:52;34.60;;;25.87;;
65641;SDS011;52340;-6.720;108.544;2022-07-06T04:06:54;34.57;;;26.23;;
65641;SDS011;52340;-6.720;108.544;2022-07-06T04:07:57;33.70;;;25.27;;
65641;SDS011;52340;-6.720;108.544;2022-07-06T04:09:00;33.40;;;25.70;;
65641;SDS011;52340;-6.720;108.544;2022-07-06T04:10:03;37.00;;;26.35;;
65641;SDS011;52340;-6.720;108.544;2022-07-06T04:11:05;34.95;;;26.00;;
65641;SDS011;52340;-6.720;108.544;2022-07-06T04:12:09;35.90;;;26.08;;
65641;SDS011;52340;-6.720;108.544;2022-07-06T04:13:12;33.87;;;25.43;;
65641;SDS011;52340;-6.720;108.544;2022-07-06T04:14:14;38.75;;;27.65;;
65641;SDS011;52340;-6.720;108.544;2022-07-06T04:15:16;36.55;;;27.63;;
65641;SDS011;52340;-6.720;108.544;2022-07-06T04:16:19;33.10;;;25.35;;
65641;SDS011;52340;-6.720;108.544;2022-07-06T04:17:22;34.30;;;25.65;;
65641;SDS011;52340;-6.720;108.544;2022-07-06T04:18:24;36.53;;;25.77;;
65641;SDS011;52340;-6.720;108.544;2022-07-06T04:19:26;31.38;;;25.25;;
65641;SDS011;52340;-6.720;108.544;2022-07-06T04:20:32;32.05;;;24.92;;
65641;SDS011;52340;-6.720;108.544;2022-07-06T04:21:35;30.97;;;24.17;;
65641;SDS011;52340;-6.720;108.544;2022-07-06T04:22:38;34.55;;;25.35;;
65641;SDS011;52340;-6.720;108.544;2022-07-06T04:23:41;33.57;;;25.13;;
65641;SDS011;52340;-6.720;108.544;2022-07-06T04:24:44;31.23;;;24.92;;
65641;SDS011;52340;-6.720;108.544;2022-07-06T04:25:47;33.70;;;25.30;;
65641;SDS011;52340;-6.720;108.544;2022-07-06T04:26:50;33.53;;;23.80;;
65641;SDS011;52340;-6.720;108.544;2022-07-06T04:27:55;32.60;;;24.95;;
65641;SDS011;52340;-6.720;108.544;2022-07-06T04:28:58;35.38;;;25.02;;
65641;SDS011;52340;-6.720;108.544;2022-07-06T04:30:00;33.55;;;25.00;;
65641;SDS011;52340;-6.720;108.544;2022-07-06T04:31:03;31.33;;;24.17;;
65641;SDS011;52340;-6.720;108.544;2022-07-06T04:32:08;30.77;;;23.60;;
65641;SDS011;52340;-6.720;108.544;2022-07-06T04:33:11;32.43;;;24.17;;
65641;SDS011;52340;-6.720;108.544;2022-07-06T04:34:14;32.58;;;23.88;;
65641;SDS011;52340;-6.720;108.544;2022-07-06T04:35:17;33.67;;;22.92;;
65641;SDS011;52340;-6.720;108.544;2022-07-06T04:36:19;33.60;;;23.45;;
65641;SDS011;52340;-6.720;108.544;2022-07-06T04:37:21;30.07;;;22.43;;
65641;SDS011;52340;-6.720;108.544;2022-07-06T04:38:23;29.90;;;22.00;;
65641;SDS011;52340;-6.720;108.544;2022-07-06T04:39:25;31.50;;;22.00;;
65641;SDS011;52340;-6.720;108.544;2022-07-06T04:40:28;31.70;;;22.53;;
65641;SDS011;52340;-6.720;108.544;2022-07-06T04:41:29;31.17;;;22.80;;
65641;SDS011;52340;-6.720;108.544;2022-07-06T04:42:32;27.70;;;21.60;;
65641;SDS011;52340;-6.720;108.544;2022-07-06T04:43:38;30.70;;;22.40;;
65641;SDS011;52340;-6.720;108.544;2022-07-06T04:44:40;30.73;;;21.60;;
65641;SDS011;52340;-6.720;108.544;2022-07-06T04:45:42;27.77;;;21.77;;
65641;SDS011;52340;-6.720;108.544;2022-07-06T04:46:44;26.80;;;21.00;;
65641;SDS011;52340;-6.720;108.544;2022-07-06T04:47:46;27.00;;;20.90;;
65641;SDS011;52340;-6.720;108.544;2022-07-06T04:48:48;28.25;;;21.60;;
65641;SDS011;52340;-6.720;108.544;2022-07-06T04:49:51;26.23;;;21.15;;
65641;SDS011;52340;-6.720;108.544;2022-07-06T04:50:53;25.25;;;20.48;;
65641;SDS011;52340;-6.720;108.544;2022-07-06T04:51:55;26.55;;;20.20;;
65641;SDS011;52340;-6.720;108.544;2022-07-06T04:52:57;26.73;;;20.38;;
65641;SDS011;52340;-6.720;108.544;2022-07-06T04:54:00;26.65;;;20.65;;
65641;SDS011;52340;-6.720;108.544;2022-07-06T04:55:03;27.80;;;19.83;;
65641;SDS011;52340;-6.720;108.544;2022-07-06T04:56:06;27.90;;;20.60;;
65641;SDS011;52340;-6.720;108.544;2022-07-06T04:57:09;28.65;;;20.70;;
65641;SDS011;52340;-6.720;108.544;2022-07-06T04:58:11;26.65;;;20.65;;
65641;SDS011;52340;-6.720;108.544;2022-07-06T04:59:16;26.48;;;20.67;;
65641;SDS011;52340;-6.720;108.544;2022-07-06T05:00:18;25.08;;;20.20;;
65641;SDS011;52340;-6.720;108.544;2022-07-06T05:01:21;29.80;;;20.13;;
65641;SDS011;52340;-6.720;108.544;2022-07-06T05:02:23;25.15;;;19.83;;
65641;SDS011;52340;-6.720;108.544;2022-07-06T05:03:26;27.17;;;19.30;;
65641;SDS011;52340;-6.720;108.544;2022-07-06T05:04:29;27.30;;;20.40;;
65641;SDS011;52340;-6.720;108.544;2022-07-06T05:05:32;25.10;;;19.67;;
65641;SDS011;52340;-6.720;108.544;2022-07-06T05:06:34;25.70;;;19.80;;
65641;SDS011;52340;-6.720;108.544;2022-07-06T05:07:36;25.10;;;20.20;;
65641;SDS011;52340;-6.720;108.544;2022-07-06T05:08:39;26.00;;;20.10;;
65641;SDS011;52340;-6.720;108.544;2022-07-06T05:09:44;24.80;;;19.45;;
65641;SDS011;52340;-6.720;108.544;2022-07-06T05:10:50;26.43;;;20.87;;
65641;SDS011;52340;-6.720;108.544;2022-07-06T05:11:55;26.38;;;19.88;;
65641;SDS011;52340;-6.720;108.544;2022-07-06T05:12:57;24.67;;;19.20;;
65641;SDS011;52340;-6.720;108.544;2022-07-06T05:14:00;25.95;;;19.08;;
65641;SDS011;52340;-6.720;108.544;2022-07-06T05:15:04;23.88;;;20.23;;
65641;SDS011;52340;-6.720;108.544;2022-07-06T05:16:07;23.08;;;19.10;;
65641;SDS011;52340;-6.720;108.544;2022-07-06T05:17:11;24.53;;;19.07;;
65641;SDS011;52340;-6.720;108.544;2022-07-06T05:18:13;27.02;;;18.92;;
65641;SDS011;52340;-6.720;108.544;2022-07-06T05:19:15;23.88;;;19.20;;
65641;SDS011;52340;-6.720;108.544;2022-07-06T05:20:19;26.87;;;19.17;;
65641;SDS011;52340;-6.720;108.544;2022-07-06T05:21:21;24.07;;;19.03;;
65641;SDS011;52340;-6.720;108.544;2022-07-06T05:22:24;24.10;;;18.80;;
65641;SDS011;52340;-6.720;108.544;2022-07-06T05:23:27;24.97;;;19.33;;
65641;SDS011;52340;-6.720;108.544;2022-07-06T05:24:32;26.10;;;19.17;;
65641;SDS011;52340;-6.720;108.544;2022-07-06T05:25:35;24.43;;;19.17;;
65641;SDS011;52340;-6.720;108.544;2022-07-06T05:26:37;25.67;;;19.40;;
65641;SDS011;52340;-6.720;108.544;2022-07-06T05:27:40;25.30;;;19.73;;
65641;SDS011;52340;-6.720;108.544;2022-07-06T05:28:42;26.30;;;19.63;;
65641;SDS011;52340;-6.720;108.544;2022-07-06T05:29:45;25.77;;;19.70;;
65641;SDS011;52340;-6.720;108.544;2022-07-06T05:30:49;26.55;;;19.70;;
65641;SDS011;52340;-6.720;108.544;2022-07-06T05:31:52;26.77;;;19.73;;
65641;SDS011;52340;-6.720;108.544;2022-07-06T05:32:54;23.67;;;19.17;;
65641;SDS011;52340;-6.720;108.544;2022-07-06T05:33:56;27.15;;;19.55;;
65641;SDS011;52340;-6.720;108.544;2022-07-06T05:34:59;25.30;;;18.70;;
65641;SDS011;52340;-6.720;108.544;2022-07-06T05:36:02;25.80;;;19.15;;
65641;SDS011;52340;-6.720;108.544;2022-07-06T05:37:05;27.63;;;19.73;;
65641;SDS011;52340;-6.720;108.544;2022-07-06T05:38:10;24.67;;;19.38;;
65641;SDS011;52340;-6.720;108.544;2022-07-06T05:39:15;25.30;;;19.30;;
65641;SDS011;52340;-6.720;108.544;2022-07-06T05:40:17;25.15;;;19.52;;
65641;SDS011;52340;-6.720;108.544;2022-07-06T05:41:19;27.58;;;20.00;;
65641;SDS011;52340;-6.720;108.544;2022-07-06T05:42:24;25.67;;;18.87;;
65641;SDS011;52340;-6.720;108.544;2022-07-06T05:43:27;26.50;;;19.83;;
65641;SDS011;52340;-6.720;108.544;2022-07-06T05:44:29;24.98;;;18.27;;
65641;SDS011;52340;-6.720;108.544;2022-07-06T05:45:32;26.35;;;18.73;;
65641;SDS011;52340;-6.720;108.544;2022-07-06T05:46:36;25.37;;;18.77;;
65641;SDS011;52340;-6.720;108.544;2022-07-06T05:47:42;25.55;;;18.67;;
65641;SDS011;52340;-6.720;108.544;2022-07-06T05:48:45;24.07;;;19.03;;
65641;SDS011;52340;-6.720;108.544;2022-07-06T05:49:47;23.83;;;18.67;;
65641;SDS011;52340;-6.720;108.544;2022-07-06T05:50:50;23.55;;;19.25;;
65641;SDS011;52340;-6.720;108.544;2022-07-06T05:51:52;25.00;;;18.75;;
65641;SDS011;52340;-6.720;108.544;2022-07-06T05:52:57;24.52;;;18.88;;
65641;SDS011;52340;-6.720;108.544;2022-07-06T05:54:00;24.67;;;19.35;;
65641;SDS011;52340;-6.720;108.544;2022-07-06T05:55:03;24.00;;;17.98;;
65641;SDS011;52340;-6.720;108.544;2022-07-06T05:56:06;24.53;;;19.97;;
65641;SDS011;52340;-6.720;108.544;2022-07-06T05:57:11;22.80;;;18.33;;
65641;SDS011;52340;-6.720;108.544;2022-07-06T05:58:13;24.97;;;18.33;;
65641;SDS011;52340;-6.720;108.544;2022-07-06T05:59:15;26.50;;;20.00;;
65641;SDS011;52340;-6.720;108.544;2022-07-06T06:00:18;24.05;;;18.50;;
65641;SDS011;52340;-6.720;108.544;2022-07-06T06:01:22;23.27;;;18.15;;
65641;SDS011;52340;-6.720;108.544;2022-07-06T06:02:26;25.42;;;19.83;;
65641;SDS011;52340;-6.720;108.544;2022-07-06T06:03:31;24.30;;;18.85;;
65641;SDS011;52340;-6.720;108.544;2022-07-06T06:04:33;24.53;;;19.37;;
65641;SDS011;52340;-6.720;108.544;2022-07-06T06:05:36;27.00;;;19.95;;
65641;SDS011;52340;-6.720;108.544;2022-07-06T06:06:38;23.97;;;19.50;;
65641;SDS011;52340;-6.720;108.544;2022-07-06T06:07:43;25.43;;;19.20;;
65641;SDS011;52340;-6.720;108.544;2022-07-06T06:08:46;24.83;;;19.93;;
65641;SDS011;52340;-6.720;108.544;2022-07-06T06:09:49;23.65;;;18.60;;
65641;SDS011;52340;-6.720;108.544;2022-07-06T06:10:52;23.77;;;18.43;;
65641;SDS011;52340;-6.720;108.544;2022-07-06T06:11:55;24.90;;;19.35;;
65641;SDS011;52340;-6.720;108.544;2022-07-06T06:12:57;26.10;;;20.85;;